sensor_id;sensor_type;location;lat;lon;timestamp;temperature;humidity
20041;DHT22;10181;48.072;9.884;2022-12-15T00:02:22;0.90;99.90
20041;DHT22;10181;48.072;9.884;2022-12-15T00:05:06;0.80;99.90
20041;DHT22;10181;48.072;9.884;2022-12-15T00:07:51;0.80;99.90
20041;DHT22;10181;48.072;9.884;2022-12-15T00:10:35;0.90;99.90
20041;DHT22;10181;48.072;9.884;2022-12-15T00:13:19;0.90;99.90
20041;DHT22;10181;48.072;9.884;2022-12-15T00:16:04;0.80;99.90
20041;DHT22;10181;48.072;9.884;2022-12-15T00:18:48;0.80;99.90
20041;DHT22;10181;48.072;9.884;2022-12-15T00:21:32;0.70;99.90
20041;DHT22;10181;48.072;9.884;2022-12-15T00:24:16;0.70;99.90
20041;DHT22;10181;48.072;9.884;2022-12-15T00:27:00;0.70;99.90
20041;DHT22;10181;48.072;9.884;2022-12-15T00:29:45;0.70;99.90
20041;DHT22;10181;48.072;9.884;2022-12-15T00:32:29;0.70;99.90
20041;DHT22;10181;48.072;9.884;2022-12-15T00:35:13;0.70;99.90
20041;DHT22;10181;48.072;9.884;2022-12-15T00:37:57;0.70;99.90
20041;DHT22;10181;48.072;9.884;2022-12-15T00:40:41;0.70;99.90
20041;DHT22;10181;48.072;9.884;2022-12-15T00:43:07;0.70;99.90
20041;DHT22;10181;48.072;9.884;2022-12-15T00:45:36;0.60;99.90
20041;DHT22;10181;48.072;9.884;2022-12-15T00:48:21;0.60;99.90
20041;DHT22;10181;48.072;9.884;2022-12-15T00:50:46;0.60;99.90
20041;DHT22;10181;48.072;9.884;2022-12-15T00:53:22;0.60;99.90
20041;DHT22;10181;48.072;9.884;2022-12-15T00:56:08;0.60;99.90
20041;DHT22;10181;48.072;9.884;2022-12-15T00:58:52;0.60;99.90
20041;DHT22;10181;48.072;9.884;2022-12-15T01:01:37;0.60;99.90
20041;DHT22;10181;48.072;9.884;2022-12-15T01:04:21;0.50;99.90
20041;DHT22;10181;48.072;9.884;2022-12-15T01:07:05;0.50;99.90
20041;DHT22;10181;48.072;9.884;2022-12-15T01:09:49;0.40;99.90
20041;DHT22;10181;48.072;9.884;2022-12-15T01:12:34;0.40;99.90
20041;DHT22;10181;48.072;9.884;2022-12-15T01:15:18;0.40;99.90
20041;DHT22;10181;48.072;9.884;2022-12-15T01:18:02;0.40;99.90
20041;DHT22;10181;48.072;9.884;2022-12-15T01:21:01;0.30;99.90
20041;DHT22;10181;48.072;9.884;2022-12-15T01:23:27;0.30;99.90
20041;DHT22;10181;48.072;9.884;2022-12-15T01:25:53;0.30;99.90
20041;DHT22;10181;48.072;9.884;2022-12-15T01:28:19;0.20;99.90
20041;DHT22;10181;48.072;9.884;2022-12-15T01:30:45;0.10;99.90
20041;DHT22;10181;48.072;9.884;2022-12-15T01:33:11;0.10;99.90
20041;DHT22;10181;48.072;9.884;2022-12-15T01:35:38;0.10;99.90
20041;DHT22;10181;48.072;9.884;2022-12-15T01:38:03;0.10;99.90
20041;DHT22;10181;48.072;9.884;2022-12-15T01:40:29;0.10;99.90
20041;DHT22;10181;48.072;9.884;2022-12-15T01:43:19;0.00;99.90
20041;DHT22;10181;48.072;9.884;2022-12-15T01:53:41;-0.10;99.90
20041;DHT22;10181;48.072;9.884;2022-12-15T01:56:08;-0.10;99.90
20041;DHT22;10181;48.072;9.884;2022-12-15T01:58:35;-0.10;99.90
20041;DHT22;10181;48.072;9.884;2022-12-15T02:01:01;-0.20;99.90
20041;DHT22;10181;48.072;9.884;2022-12-15T02:03:28;-0.20;99.90
20041;DHT22;10181;48.072;9.884;2022-12-15T02:05:54;-0.20;99.90
20041;DHT22;10181;48.072;9.884;2022-12-15T02:08:20;-0.20;99.90
20041;DHT22;10181;48.072;9.884;2022-12-15T02:11:27;-0.20;99.90
20041;DHT22;10181;48.072;9.884;2022-12-15T02:14:06;-0.30;99.90
20041;DHT22;10181;48.072;9.884;2022-12-15T02:19:52;-0.30;99.90
20041;DHT22;10181;48.072;9.884;2022-12-15T02:30:31;-0.50;99.90
20041;DHT22;10181;48.072;9.884;2022-12-15T02:33:20;-0.40;99.90
20041;DHT22;10181;48.072;9.884;2022-12-15T02:35:59;-0.40;99.90
20041;DHT22;10181;48.072;9.884;2022-12-15T02:38:31;-0.40;99.90
20041;DHT22;10181;48.072;9.884;2022-12-15T02:40:59;-0.40;99.90
20041;DHT22;10181;48.072;9.884;2022-12-15T02:43:26;-0.40;99.90
20041;DHT22;10181;48.072;9.884;2022-12-15T02:48:32;-0.50;99.90
20041;DHT22;10181;48.072;9.884;2022-12-15T02:59:32;-0.50;99.90
20041;DHT22;10181;48.072;9.884;2022-12-15T03:02:02;-0.40;99.90
20041;DHT22;10181;48.072;9.884;2022-12-15T03:04:30;-0.40;99.90
20041;DHT22;10181;48.072;9.884;2022-12-15T03:07:01;-0.40;99.90
20041;DHT22;10181;48.072;9.884;2022-12-15T03:09:29;-0.40;99.90
20041;DHT22;10181;48.072;9.884;2022-12-15T03:11:55;-0.40;99.90
20041;DHT22;10181;48.072;9.884;2022-12-15T03:14:20;-0.40;99.90
20041;DHT22;10181;48.072;9.884;2022-12-15T03:16:46;-0.50;99.90
20041;DHT22;10181;48.072;9.884;2022-12-15T03:19:12;-0.50;99.90
20041;DHT22;10181;48.072;9.884;2022-12-15T03:21:37;-0.50;99.90
20041;DHT22;10181;48.072;9.884;2022-12-15T03:24:03;-0.60;99.90
20041;DHT22;10181;48.072;9.884;2022-12-15T03:26:28;-0.50;99.90
20041;DHT22;10181;48.072;9.884;2022-12-15T03:28:54;-0.50;99.90
20041;DHT22;10181;48.072;9.884;2022-12-15T03:31:20;-0.40;99.90
20041;DHT22;10181;48.072;9.884;2022-12-15T03:33:45;-0.40;99.90
20041;DHT22;10181;48.072;9.884;2022-12-15T03:36:11;-0.40;99.90
20041;DHT22;10181;48.072;9.884;2022-12-15T03:38:36;-0.40;99.90
20041;DHT22;10181;48.072;9.884;2022-12-15T03:41:02;-0.40;99.90
20041;DHT22;10181;48.072;9.884;2022-12-15T03:43:28;-0.40;99.90
20041;DHT22;10181;48.072;9.884;2022-12-15T03:45:53;-0.40;99.90
20041;DHT22;10181;48.072;9.884;2022-12-15T03:48:19;-0.40;99.90
20041;DHT22;10181;48.072;9.884;2022-12-15T03:50:47;-0.40;99.90
20041;DHT22;10181;48.072;9.884;2022-12-15T03:53:13;-0.50;99.90
20041;DHT22;10181;48.072;9.884;2022-12-15T03:55:38;-0.50;99.90
20041;DHT22;10181;48.072;9.884;2022-12-15T03:58:04;-0.50;99.90
20041;DHT22;10181;48.072;9.884;2022-12-15T04:00:30;-0.40;99.90
20041;DHT22;10181;48.072;9.884;2022-12-15T04:02:56;-0.40;99.90
20041;DHT22;10181;48.072;9.884;2022-12-15T04:05:28;-0.40;99.90
20041;DHT22;10181;48.072;9.884;2022-12-15T04:07:55;-0.50;99.90
20041;DHT22;10181;48.072;9.884;2022-12-15T04:10:23;-0.50;99.90
20041;DHT22;10181;48.072;9.884;2022-12-15T04:12:56;-0.50;99.90
20041;DHT22;10181;48.072;9.884;2022-12-15T04:15:22;-0.50;99.90
20041;DHT22;10181;48.072;9.884;2022-12-15T04:17:47;-0.50;99.90
20041;DHT22;10181;48.072;9.884;2022-12-15T04:20:13;-0.50;99.90
20041;DHT22;10181;48.072;9.884;2022-12-15T04:22:40;-0.50;99.90
20041;DHT22;10181;48.072;9.884;2022-12-15T04:25:09;-0.50;99.90
20041;DHT22;10181;48.072;9.884;2022-12-15T04:27:53;-0.50;99.90
20041;DHT22;10181;48.072;9.884;2022-12-15T04:30:39;-0.50;99.90
20041;DHT22;10181;48.072;9.884;2022-12-15T04:33:24;-0.50;99.90
20041;DHT22;10181;48.072;9.884;2022-12-15T04:36:10;-0.40;99.90
20041;DHT22;10181;48.072;9.884;2022-12-15T04:38:56;-0.40;99.90
20041;DHT22;10181;48.072;9.884;2022-12-15T04:41:40;-0.40;99.90
20041;DHT22;10181;48.072;9.884;2022-12-15T04:44:24;-0.40;99.90
20041;DHT22;10181;48.072;9.884;2022-12-15T04:47:09;-0.40;99.90
20041;DHT22;10181;48.072;9.884;2022-12-15T04:49:53;-0.40;99.90
20041;DHT22;10181;48.072;9.884;2022-12-15T04:52:37;-0.40;99.90
20041;DHT22;10181;48.072;9.884;2022-12-15T04:55:21;-0.50;99.90
20041;DHT22;10181;48.072;9.884;2022-12-15T04:58:07;-0.50;99.90
20041;DHT22;10181;48.072;9.884;2022-12-15T05:00:51;-0.50;99.90
20041;DHT22;10181;48.072;9.884;2022-12-15T05:03:36;-0.50;99.90
20041;DHT22;10181;48.072;9.884;2022-12-15T05:06:20;-0.50;99.90
20041;DHT22;10181;48.072;9.884;2022-12-15T05:09:04;-0.50;99.90
20041;DHT22;10181;48.072;9.884;2022-12-15T05:11:48;-0.50;99.90
20041;DHT22;10181;48.072;9.884;2022-12-15T05:14:32;-0.50;99.90
20041;DHT22;10181;48.072;9.884;2022-12-15T05:17:16;-0.50;99.90
20041;DHT22;10181;48.072;9.884;2022-12-15T05:20:00;-0.50;99.90
20041;DHT22;10181;48.072;9.884;2022-12-15T05:22:44;-0.50;99.90
20041;DHT22;10181;48.072;9.884;2022-12-15T05:25:28;-0.50;99.90
20041;DHT22;10181;48.072;9.884;2022-12-15T05:28:12;-0.50;99.90
20041;DHT22;10181;48.072;9.884;2022-12-15T05:30:57;-0.50;99.90
20041;DHT22;10181;48.072;9.884;2022-12-15T05:33:41;-0.50;99.90
20041;DHT22;10181;48.072;9.884;2022-12-15T05:36:06;-0.50;99.90
20041;DHT22;10181;48.072;9.884;2022-12-15T05:38:32;-0.50;99.90
20041;DHT22;10181;48.072;9.884;2022-12-15T05:40:59;-0.50;99.90
20041;DHT22;10181;48.072;9.884;2022-12-15T05:43:24;-0.50;99.90
20041;DHT22;10181;48.072;9.884;2022-12-15T05:45:50;-0.60;99.90
20041;DHT22;10181;48.072;9.884;2022-12-15T05:48:16;-0.60;99.90
20041;DHT22;10181;48.072;9.884;2022-12-15T05:50:41;-0.60;99.90
20041;DHT22;10181;48.072;9.884;2022-12-15T05:53:07;-0.60;99.90
20041;DHT22;10181;48.072;9.884;2022-12-15T05:55:33;-0.60;99.90
20041;DHT22;10181;48.072;9.884;2022-12-15T05:57:58;-0.60;99.90
20041;DHT22;10181;48.072;9.884;2022-12-15T06:00:24;-0.60;99.90
20041;DHT22;10181;48.072;9.884;2022-12-15T06:02:50;-0.60;99.90
20041;DHT22;10181;48.072;9.884;2022-12-15T06:05:16;-0.60;99.90
20041;DHT22;10181;48.072;9.884;2022-12-15T06:07:41;-0.70;99.90
20041;DHT22;10181;48.072;9.884;2022-12-15T06:10:07;-0.70;99.90
20041;DHT22;10181;48.072;9.884;2022-12-15T06:12:33;-0.70;99.90
20041;DHT22;10181;48.072;9.884;2022-12-15T06:14:58;-0.60;99.90
20041;DHT22;10181;48.072;9.884;2022-12-15T06:17:24;-0.60;99.90
20041;DHT22;10181;48.072;9.884;2022-12-15T06:19:50;-0.60;99.90
20041;DHT22;10181;48.072;9.884;2022-12-15T06:22:15;-0.70;99.90
20041;DHT22;10181;48.072;9.884;2022-12-15T06:24:41;-0.70;99.90
20041;DHT22;10181;48.072;9.884;2022-12-15T06:27:07;-0.70;99.90
20041;DHT22;10181;48.072;9.884;2022-12-15T06:29:33;-0.70;99.90
20041;DHT22;10181;48.072;9.884;2022-12-15T06:31:59;-0.70;99.90
20041;DHT22;10181;48.072;9.884;2022-12-15T06:34:24;-0.70;99.90
20041;DHT22;10181;48.072;9.884;2022-12-15T06:36:51;-0.70;99.90
20041;DHT22;10181;48.072;9.884;2022-12-15T06:39:17;-0.70;99.90
20041;DHT22;10181;48.072;9.884;2022-12-15T06:41:43;-0.70;99.90
20041;DHT22;10181;48.072;9.884;2022-12-15T06:44:12;-0.70;99.90
20041;DHT22;10181;48.072;9.884;2022-12-15T06:46:38;-0.70;99.90
20041;DHT22;10181;48.072;9.884;2022-12-15T06:49:04;-0.70;99.90
20041;DHT22;10181;48.072;9.884;2022-12-15T06:51:29;-0.70;99.90
20041;DHT22;10181;48.072;9.884;2022-12-15T06:53:55;-0.70;99.90
20041;DHT22;10181;48.072;9.884;2022-12-15T06:56:28;-0.70;99.90
20041;DHT22;10181;48.072;9.884;2022-12-15T06:58:54;-0.70;99.90
20041;DHT22;10181;48.072;9.884;2022-12-15T07:01:22;-0.70;99.90
20041;DHT22;10181;48.072;9.884;2022-12-15T07:03:48;-0.70;99.90
20041;DHT22;10181;48.072;9.884;2022-12-15T07:06:15;-0.70;99.90
20041;DHT22;10181;48.072;9.884;2022-12-15T07:08:42;-0.70;99.90
20041;DHT22;10181;48.072;9.884;2022-12-15T07:11:11;-0.70;99.90
20041;DHT22;10181;48.072;9.884;2022-12-15T07:13:37;-0.70;99.90
20041;DHT22;10181;48.072;9.884;2022-12-15T07:16:04;-0.70;99.90
20041;DHT22;10181;48.072;9.884;2022-12-15T07:18:31;-0.70;99.90
20041;DHT22;10181;48.072;9.884;2022-12-15T07:21:02;-0.70;99.90
20041;DHT22;10181;48.072;9.884;2022-12-15T07:23:29;-0.70;99.90
20041;DHT22;10181;48.072;9.884;2022-12-15T07:25:54;-0.70;99.90
20041;DHT22;10181;48.072;9.884;2022-12-15T07:28:20;-0.80;99.90
20041;DHT22;10181;48.072;9.884;2022-12-15T07:30:46;-0.80;99.90
20041;DHT22;10181;48.072;9.884;2022-12-15T07:33:11;-0.80;99.90
20041;DHT22;10181;48.072;9.884;2022-12-15T07:35:37;-0.70;99.90
20041;DHT22;10181;48.072;9.884;2022-12-15T07:38:05;-0.70;99.90
20041;DHT22;10181;48.072;9.884;2022-12-15T07:40:32;-0.80;99.90
20041;DHT22;10181;48.072;9.884;2022-12-15T07:42:57;-0.80;99.90
20041;DHT22;10181;48.072;9.884;2022-12-15T07:45:23;-0.80;99.90
20041;DHT22;10181;48.072;9.884;2022-12-15T07:47:49;-0.80;99.90
20041;DHT22;10181;48.072;9.884;2022-12-15T07:50:16;-0.70;99.90
20041;DHT22;10181;48.072;9.884;2022-12-15T07:52:42;-0.70;99.90
20041;DHT22;10181;48.072;9.884;2022-12-15T07:55:07;-0.80;99.90
20041;DHT22;10181;48.072;9.884;2022-12-15T07:57:33;-0.80;99.90
20041;DHT22;10181;48.072;9.884;2022-12-15T07:59:59;-0.80;99.90
20041;DHT22;10181;48.072;9.884;2022-12-15T08:02:24;-0.80;99.90
20041;DHT22;10181;48.072;9.884;2022-12-15T08:04:50;-0.70;99.90
20041;DHT22;10181;48.072;9.884;2022-12-15T08:07:15;-0.70;99.90
20041;DHT22;10181;48.072;9.884;2022-12-15T08:09:41;-0.70;99.90
20041;DHT22;10181;48.072;9.884;2022-12-15T08:12:07;-0.70;99.90
20041;DHT22;10181;48.072;9.884;2022-12-15T08:14:33;-0.70;99.90
20041;DHT22;10181;48.072;9.884;2022-12-15T08:16:59;-0.70;99.90
20041;DHT22;10181;48.072;9.884;2022-12-15T08:19:25;-0.70;99.90
20041;DHT22;10181;48.072;9.884;2022-12-15T08:21:50;-0.80;99.90
20041;DHT22;10181;48.072;9.884;2022-12-15T08:24:16;-0.80;99.90
20041;DHT22;10181;48.072;9.884;2022-12-15T08:26:43;-0.90;99.90
20041;DHT22;10181;48.072;9.884;2022-12-15T08:29:13;-0.80;99.90
20041;DHT22;10181;48.072;9.884;2022-12-15T08:31:38;-0.80;99.90
20041;DHT22;10181;48.072;9.884;2022-12-15T08:34:06;-0.70;99.90
20041;DHT22;10181;48.072;9.884;2022-12-15T08:36:32;-0.70;99.90
20041;DHT22;10181;48.072;9.884;2022-12-15T08:38:59;-0.70;99.90
20041;DHT22;10181;48.072;9.884;2022-12-15T08:41:27;-0.70;99.90
20041;DHT22;10181;48.072;9.884;2022-12-15T08:43:54;-0.60;99.90
20041;DHT22;10181;48.072;9.884;2022-12-15T08:46:38;-0.60;99.90
20041;DHT22;10181;48.072;9.884;2022-12-15T08:49:04;-0.60;99.90
20041;DHT22;10181;48.072;9.884;2022-12-15T08:51:31;-0.60;99.90
20041;DHT22;10181;48.072;9.884;2022-12-15T08:53:58;-0.60;99.90
20041;DHT22;10181;48.072;9.884;2022-12-15T08:56:25;-0.60;99.90
20041;DHT22;10181;48.072;9.884;2022-12-15T08:58:58;-0.60;99.90
20041;DHT22;10181;48.072;9.884;2022-12-15T09:01:25;-0.60;99.90
20041;DHT22;10181;48.072;9.884;2022-12-15T09:03:52;-0.50;99.90
20041;DHT22;10181;48.072;9.884;2022-12-15T09:06:24;-0.50;99.90
20041;DHT22;10181;48.072;9.884;2022-12-15T09:08:53;-0.40;99.90
20041;DHT22;10181;48.072;9.884;2022-12-15T09:11:19;-0.40;99.90
20041;DHT22;10181;48.072;9.884;2022-12-15T09:13:44;-0.40;99.90
20041;DHT22;10181;48.072;9.884;2022-12-15T09:16:16;-0.40;99.90
20041;DHT22;10181;48.072;9.884;2022-12-15T09:18:44;-0.40;99.90
20041;DHT22;10181;48.072;9.884;2022-12-15T09:21:11;-0.40;99.90
20041;DHT22;10181;48.072;9.884;2022-12-15T09:23:38;-0.40;99.90
20041;DHT22;10181;48.072;9.884;2022-12-15T09:26:09;-0.40;99.90
20041;DHT22;10181;48.072;9.884;2022-12-15T09:28:35;-0.40;99.90
20041;DHT22;10181;48.072;9.884;2022-12-15T09:33:31;-0.30;99.90
20041;DHT22;10181;48.072;9.884;2022-12-15T09:35:58;-0.30;99.90
20041;DHT22;10181;48.072;9.884;2022-12-15T09:38:24;-0.30;99.90
20041;DHT22;10181;48.072;9.884;2022-12-15T09:40:50;-0.30;99.90
20041;DHT22;10181;48.072;9.884;2022-12-15T09:43:19;-0.30;99.90
20041;DHT22;10181;48.072;9.884;2022-12-15T09:46:13;-0.20;99.90
20041;DHT22;10181;48.072;9.884;2022-12-15T09:48:43;-0.20;99.90
20041;DHT22;10181;48.072;9.884;2022-12-15T09:51:15;-0.20;99.90
20041;DHT22;10181;48.072;9.884;2022-12-15T09:53:48;-0.20;99.90
20041;DHT22;10181;48.072;9.884;2022-12-15T09:56:25;-0.20;99.90
20041;DHT22;10181;48.072;9.884;2022-12-15T09:59:04;-0.20;99.90
20041;DHT22;10181;48.072;9.884;2022-12-15T10:01:43;-0.10;99.90
20041;DHT22;10181;48.072;9.884;2022-12-15T10:04:28;-0.10;99.90
20041;DHT22;10181;48.072;9.884;2022-12-15T10:07:27;-0.10;99.90
20041;DHT22;10181;48.072;9.884;2022-12-15T10:09:54;-0.10;99.90
20041;DHT22;10181;48.072;9.884;2022-12-15T10:12:32;0.00;99.90
20041;DHT22;10181;48.072;9.884;2022-12-15T10:20:17;0.00;99.90
20041;DHT22;10181;48.072;9.884;2022-12-15T10:22:44;0.00;99.90
20041;DHT22;10181;48.072;9.884;2022-12-15T10:25:19;0.00;99.90
20041;DHT22;10181;48.072;9.884;2022-12-15T10:31:12;0.00;99.90
20041;DHT22;10181;48.072;9.884;2022-12-15T10:33:41;0.00;99.90
20041;DHT22;10181;48.072;9.884;2022-12-15T10:36:12;0.00;99.90
20041;DHT22;10181;48.072;9.884;2022-12-15T10:38:40;0.00;99.90
20041;DHT22;10181;48.072;9.884;2022-12-15T10:41:19;0.00;99.90
20041;DHT22;10181;48.072;9.884;2022-12-15T10:43:48;0.00;99.90
20041;DHT22;10181;48.072;9.884;2022-12-15T10:48:46;0.00;99.90
20041;DHT22;10181;48.072;9.884;2022-12-15T10:51:20;0.10;99.90
20041;DHT22;10181;48.072;9.884;2022-12-15T10:54:01;0.10;99.90
20041;DHT22;10181;48.072;9.884;2022-12-15T10:56:29;0.10;99.90
20041;DHT22;10181;48.072;9.884;2022-12-15T10:58:57;0.10;99.90
20041;DHT22;10181;48.072;9.884;2022-12-15T11:01:26;0.10;99.90
20041;DHT22;10181;48.072;9.884;2022-12-15T11:03:52;0.10;99.90
20041;DHT22;10181;48.072;9.884;2022-12-15T11:06:23;0.10;99.90
20041;DHT22;10181;48.072;9.884;2022-12-15T11:08:52;0.10;99.90
20041;DHT22;10181;48.072;9.884;2022-12-15T11:11:36;0.10;99.90
20041;DHT22;10181;48.072;9.884;2022-12-15T11:14:42;0.20;99.90
20041;DHT22;10181;48.072;9.884;2022-12-15T11:17:08;0.20;99.90
20041;DHT22;10181;48.072;9.884;2022-12-15T11:25:08;0.20;99.90
20041;DHT22;10181;48.072;9.884;2022-12-15T11:27:42;0.20;99.90
20041;DHT22;10181;48.072;9.884;2022-12-15T11:30:20;0.20;99.90
20041;DHT22;10181;48.072;9.884;2022-12-15T11:32:49;0.20;99.90
20041;DHT22;10181;48.072;9.884;2022-12-15T11:35:21;0.20;99.90
20041;DHT22;10181;48.072;9.884;2022-12-15T11:37:55;0.20;99.90
20041;DHT22;10181;48.072;9.884;2022-12-15T11:40:40;0.20;99.90
20041;DHT22;10181;48.072;9.884;2022-12-15T11:43:33;0.20;99.90
20041;DHT22;10181;48.072;9.884;2022-12-15T11:51:41;0.00;99.90
20041;DHT22;10181;48.072;9.884;2022-12-15T11:54:16;0.00;99.90
20041;DHT22;10181;48.072;9.884;2022-12-15T11:56:49;-0.10;99.90
20041;DHT22;10181;48.072;9.884;2022-12-15T12:11:15;-0.30;99.90
20041;DHT22;10181;48.072;9.884;2022-12-15T12:16:38;-0.40;99.90
20041;DHT22;10181;48.072;9.884;2022-12-15T12:21:46;-0.40;99.90
20041;DHT22;10181;48.072;9.884;2022-12-15T12:24:18;-0.40;99.90
20041;DHT22;10181;48.072;9.884;2022-12-15T12:26:46;-0.40;99.90
20041;DHT22;10181;48.072;9.884;2022-12-15T12:29:39;-0.40;99.90
20041;DHT22;10181;48.072;9.884;2022-12-15T12:32:22;-0.40;99.90
20041;DHT22;10181;48.072;9.884;2022-12-15T12:37:36;-0.40;99.90
20041;DHT22;10181;48.072;9.884;2022-12-15T12:42:54;-0.40;99.90
20041;DHT22;10181;48.072;9.884;2022-12-15T12:45:31;-0.40;99.90
20041;DHT22;10181;48.072;9.884;2022-12-15T12:48:04;-0.40;99.90
20041;DHT22;10181;48.072;9.884;2022-12-15T12:50:32;-0.50;99.90
20041;DHT22;10181;48.072;9.884;2022-12-15T12:53:01;-0.50;99.90
20041;DHT22;10181;48.072;9.884;2022-12-15T12:55:37;-0.50;99.90
20041;DHT22;10181;48.072;9.884;2022-12-15T12:58:36;-0.50;99.90
20041;DHT22;10181;48.072;9.884;2022-12-15T13:01:29;-0.50;99.90
20041;DHT22;10181;48.072;9.884;2022-12-15T13:04:05;-0.50;99.90
20041;DHT22;10181;48.072;9.884;2022-12-15T13:14:26;-0.60;99.90
20041;DHT22;10181;48.072;9.884;2022-12-15T13:17:06;-0.60;99.90
20041;DHT22;10181;48.072;9.884;2022-12-15T13:22:33;-0.60;99.90
20041;DHT22;10181;48.072;9.884;2022-12-15T13:25:01;-0.60;99.90
20041;DHT22;10181;48.072;9.884;2022-12-15T13:27:38;-0.60;99.90
20041;DHT22;10181;48.072;9.884;2022-12-15T13:32:42;-0.60;99.90
20041;DHT22;10181;48.072;9.884;2022-12-15T13:38:00;-0.60;99.90
20041;DHT22;10181;48.072;9.884;2022-12-15T13:45:48;-0.70;99.90
20041;DHT22;10181;48.072;9.884;2022-12-15T13:53:22;-0.60;99.90
20041;DHT22;10181;48.072;9.884;2022-12-15T13:56:32;-0.60;99.90
20041;DHT22;10181;48.072;9.884;2022-12-15T13:59:05;-0.60;99.90
20041;DHT22;10181;48.072;9.884;2022-12-15T14:01:36;-0.50;99.90
20041;DHT22;10181;48.072;9.884;2022-12-15T14:06:36;-0.50;99.90
20041;DHT22;10181;48.072;9.884;2022-12-15T14:09:03;-0.50;99.90
20041;DHT22;10181;48.072;9.884;2022-12-15T14:11:32;-0.50;99.90
20041;DHT22;10181;48.072;9.884;2022-12-15T14:14:00;-0.50;99.90
20041;DHT22;10181;48.072;9.884;2022-12-15T14:16:28;-0.40;99.90
20041;DHT22;10181;48.072;9.884;2022-12-15T14:21:33;-0.40;99.90
20041;DHT22;10181;48.072;9.884;2022-12-15T14:23:59;-0.40;99.90
20041;DHT22;10181;48.072;9.884;2022-12-15T14:26:27;-0.40;99.90
20041;DHT22;10181;48.072;9.884;2022-12-15T14:29:03;-0.40;99.90
20041;DHT22;10181;48.072;9.884;2022-12-15T14:31:30;-0.40;99.90
20041;DHT22;10181;48.072;9.884;2022-12-15T14:34:05;-0.40;99.90
20041;DHT22;10181;48.072;9.884;2022-12-15T14:36:33;-0.40;99.90
20041;DHT22;10181;48.072;9.884;2022-12-15T14:39:03;-0.40;99.90
20041;DHT22;10181;48.072;9.884;2022-12-15T14:41:37;-0.40;99.90
20041;DHT22;10181;48.072;9.884;2022-12-15T14:46:48;-0.40;99.90
20041;DHT22;10181;48.072;9.884;2022-12-15T14:49:29;-0.50;99.90
20041;DHT22;10181;48.072;9.884;2022-12-15T14:52:01;-0.50;99.90
20041;DHT22;10181;48.072;9.884;2022-12-15T14:54:34;-0.50;99.90
20041;DHT22;10181;48.072;9.884;2022-12-15T14:59:33;-0.50;99.90
20041;DHT22;10181;48.072;9.884;2022-12-15T15:02:32;-0.50;99.90
20041;DHT22;10181;48.072;9.884;2022-12-15T15:04:59;-0.60;99.90
20041;DHT22;10181;48.072;9.884;2022-12-15T15:07:30;-0.60;99.90
20041;DHT22;10181;48.072;9.884;2022-12-15T15:09:56;-0.60;99.90
20041;DHT22;10181;48.072;9.884;2022-12-15T15:12:24;-0.60;99.90
20041;DHT22;10181;48.072;9.884;2022-12-15T15:15:00;-0.60;99.90
20041;DHT22;10181;48.072;9.884;2022-12-15T15:17:56;-0.60;99.90
20041;DHT22;10181;48.072;9.884;2022-12-15T15:20:30;-0.60;99.90
20041;DHT22;10181;48.072;9.884;2022-12-15T15:28:19;-0.60;99.90
20041;DHT22;10181;48.072;9.884;2022-12-15T15:30:59;-0.60;99.90
20041;DHT22;10181;48.072;9.884;2022-12-15T15:33:30;-0.70;99.90
20041;DHT22;10181;48.072;9.884;2022-12-15T15:35:57;-0.70;99.90
20041;DHT22;10181;48.072;9.884;2022-12-15T15:40:59;-0.70;99.90
20041;DHT22;10181;48.072;9.884;2022-12-15T15:43:26;-0.70;99.90
20041;DHT22;10181;48.072;9.884;2022-12-15T15:46:04;-0.70;99.90
20041;DHT22;10181;48.072;9.884;2022-12-15T15:48:33;-0.60;99.90
20041;DHT22;10181;48.072;9.884;2022-12-15T15:50:59;-0.60;99.90
20041;DHT22;10181;48.072;9.884;2022-12-15T15:53:26;-0.60;99.90
20041;DHT22;10181;48.072;9.884;2022-12-15T15:55:55;-0.60;99.90
20041;DHT22;10181;48.072;9.884;2022-12-15T15:58:21;-0.60;99.90
20041;DHT22;10181;48.072;9.884;2022-12-15T16:00:46;-0.60;99.90
20041;DHT22;10181;48.072;9.884;2022-12-15T16:03:12;-0.70;99.90
20041;DHT22;10181;48.072;9.884;2022-12-15T16:05:38;-0.70;99.90
20041;DHT22;10181;48.072;9.884;2022-12-15T16:08:05;-0.70;99.90
20041;DHT22;10181;48.072;9.884;2022-12-15T16:10:31;-0.70;99.90
20041;DHT22;10181;48.072;9.884;2022-12-15T16:12:58;-0.70;99.90
20041;DHT22;10181;48.072;9.884;2022-12-15T16:15:29;-0.70;99.90
20041;DHT22;10181;48.072;9.884;2022-12-15T16:17:58;-0.70;99.90
20041;DHT22;10181;48.072;9.884;2022-12-15T16:20:27;-0.70;99.90
20041;DHT22;10181;48.072;9.884;2022-12-15T16:22:57;-0.70;99.90
20041;DHT22;10181;48.072;9.884;2022-12-15T16:25:30;-0.70;99.90
20041;DHT22;10181;48.072;9.884;2022-12-15T16:27:57;-0.70;99.90
20041;DHT22;10181;48.072;9.884;2022-12-15T16:30:24;-0.70;99.90
20041;DHT22;10181;48.072;9.884;2022-12-15T16:32:52;-0.70;99.90
20041;DHT22;10181;48.072;9.884;2022-12-15T16:35:18;-0.70;99.90
20041;DHT22;10181;48.072;9.884;2022-12-15T16:37:45;-0.70;99.90
20041;DHT22;10181;48.072;9.884;2022-12-15T16:40:25;-0.70;99.90
20041;DHT22;10181;48.072;9.884;2022-12-15T16:42:59;-0.70;99.90
20041;DHT22;10181;48.072;9.884;2022-12-15T16:45:27;-0.70;99.90
20041;DHT22;10181;48.072;9.884;2022-12-15T16:47:54;-0.70;99.90
20041;DHT22;10181;48.072;9.884;2022-12-15T16:50:32;-0.70;99.90
20041;DHT22;10181;48.072;9.884;2022-12-15T16:52:58;-0.70;99.90
20041;DHT22;10181;48.072;9.884;2022-12-15T16:55:27;-0.70;99.90
20041;DHT22;10181;48.072;9.884;2022-12-15T16:58:04;-0.70;99.90
20041;DHT22;10181;48.072;9.884;2022-12-15T17:00:32;-0.70;99.90
20041;DHT22;10181;48.072;9.884;2022-12-15T17:02:59;-0.70;99.90
20041;DHT22;10181;48.072;9.884;2022-12-15T17:05:26;-0.70;99.90
20041;DHT22;10181;48.072;9.884;2022-12-15T17:07:55;-0.70;99.90
20041;DHT22;10181;48.072;9.884;2022-12-15T17:10:24;-0.70;99.90
20041;DHT22;10181;48.072;9.884;2022-12-15T17:12:51;-0.70;99.90
20041;DHT22;10181;48.072;9.884;2022-12-15T17:15:24;-0.70;99.90
20041;DHT22;10181;48.072;9.884;2022-12-15T17:17:51;-0.70;99.90
20041;DHT22;10181;48.072;9.884;2022-12-15T17:20:21;-0.70;99.90
20041;DHT22;10181;48.072;9.884;2022-12-15T17:22:49;-0.70;99.90
20041;DHT22;10181;48.072;9.884;2022-12-15T17:25:22;-0.70;99.90
20041;DHT22;10181;48.072;9.884;2022-12-15T17:27:50;-0.80;99.90
20041;DHT22;10181;48.072;9.884;2022-12-15T17:30:16;-0.70;99.90
20041;DHT22;10181;48.072;9.884;2022-12-15T17:32:42;-0.70;99.90
20041;DHT22;10181;48.072;9.884;2022-12-15T17:35:09;-0.80;99.90
20041;DHT22;10181;48.072;9.884;2022-12-15T17:37:36;-0.80;99.90
20041;DHT22;10181;48.072;9.884;2022-12-15T17:40:12;-0.80;99.90
20041;DHT22;10181;48.072;9.884;2022-12-15T17:42:39;-0.80;99.90
20041;DHT22;10181;48.072;9.884;2022-12-15T17:45:16;-0.80;99.90
20041;DHT22;10181;48.072;9.884;2022-12-15T17:47:43;-0.70;99.90
20041;DHT22;10181;48.072;9.884;2022-12-15T17:50:10;-0.80;99.90
20041;DHT22;10181;48.072;9.884;2022-12-15T17:52:36;-0.80;99.90
20041;DHT22;10181;48.072;9.884;2022-12-15T17:55:05;-0.80;99.90
20041;DHT22;10181;48.072;9.884;2022-12-15T17:57:32;-0.80;99.90
20041;DHT22;10181;48.072;9.884;2022-12-15T17:59:58;-0.80;99.90
20041;DHT22;10181;48.072;9.884;2022-12-15T18:02:26;-0.80;99.90
20041;DHT22;10181;48.072;9.884;2022-12-15T18:04:51;-0.80;99.90